Terminal Aerodrome Forecast
Issued by NWS

Home | Current Version | Previous Version | Text Only | Print | Product List | Glossary On
Versions: 1 2 3 4 5 6 7 8 9 10 11 12 13 14 15 16 17 18 19 20 21 22 23 24 25 26 27 28 29
000
FTUS42 KFFC 022334
TAFRYY
TAF
KRYY 022334Z 0300/0324 24005KT P6SM BKN045 BKN100
     FM030200 25006KT P6SM SCT060 BKN250
     FM030900 23005KT 4SM BR BKN012
     FM031400 25012KT P6SM BKN025 BKN250
     FM031600 26012G18KT P6SM SCT050 BKN250 PROB30 0318/0323 4SM
      TSRA BKN025CB
      AMD NOT SKED 0304/0312=

USA.gov is the U.S. government's official web portal to all federal, state and local government web resources and services.